sensor_id;sensor_type;location;lat;lon;timestamp;pressure;altitude;pressure_sealevel;temperature;humidity
68193;BME280;55012;47.562;18.414;2022-07-09T00:01:17;97594.72;;;14.22;100.00
68193;BME280;55012;47.562;18.414;2022-07-09T00:03:42;97587.78;;;14.18;100.00
68193;BME280;55012;47.562;18.414;2022-07-09T00:06:08;97587.03;;;14.17;100.00
68193;BME280;55012;47.562;18.414;2022-07-09T00:08:34;97585.88;;;14.15;100.00
68193;BME280;55012;47.562;18.414;2022-07-09T00:10:59;97595.22;;;14.14;100.00
68193;BME280;55012;47.562;18.414;2022-07-09T00:13:25;97592.50;;;14.14;100.00
68193;BME280;55012;47.562;18.414;2022-07-09T00:15:50;97606.09;;;14.14;100.00
68193;BME280;55012;47.562;18.414;2022-07-09T00:18:18;97606.91;;;14.11;100.00
68193;BME280;55012;47.562;18.414;2022-07-09T00:20:44;97612.78;;;14.09;100.00
68193;BME280;55012;47.562;18.414;2022-07-09T00:23:09;97617.84;;;14.07;100.00
68193;BME280;55012;47.562;18.414;2022-07-09T00:25:35;97619.00;;;14.06;100.00
68193;BME280;55012;47.562;18.414;2022-07-09T00:28:00;97619.84;;;14.03;100.00
68193;BME280;55012;47.562;18.414;2022-07-09T00:30:26;97631.13;;;14.01;100.00
68193;BME280;55012;47.562;18.414;2022-07-09T00:32:52;97624.91;;;14.01;100.00
68193;BME280;55012;47.562;18.414;2022-07-09T00:35:17;97633.47;;;13.99;100.00
68193;BME280;55012;47.562;18.414;2022-07-09T00:37:43;97626.94;;;13.93;100.00
68193;BME280;55012;47.562;18.414;2022-07-09T00:40:08;97630.44;;;13.94;100.00
68193;BME280;55012;47.562;18.414;2022-07-09T00:42:34;97635.88;;;13.94;100.00
68193;BME280;55012;47.562;18.414;2022-07-09T00:45:00;97632.78;;;13.92;100.00
68193;BME280;55012;47.562;18.414;2022-07-09T00:47:25;97638.63;;;13.90;100.00
68193;BME280;55012;47.562;18.414;2022-07-09T00:49:51;97641.75;;;13.89;100.00
68193;BME280;55012;47.562;18.414;2022-07-09T00:52:17;97649.53;;;13.87;100.00
68193;BME280;55012;47.562;18.414;2022-07-09T00:54:43;97646.09;;;13.83;100.00
68193;BME280;55012;47.562;18.414;2022-07-09T00:57:10;97661.59;;;13.86;100.00
68193;BME280;55012;47.562;18.414;2022-07-09T00:59:38;97657.69;;;13.87;100.00
68193;BME280;55012;47.562;18.414;2022-07-09T01:02:04;97661.22;;;13.84;100.00
68193;BME280;55012;47.562;18.414;2022-07-09T01:04:31;97659.72;;;13.79;100.00
68193;BME280;55012;47.562;18.414;2022-07-09T01:06:56;97661.66;;;13.78;100.00
68193;BME280;55012;47.562;18.414;2022-07-09T01:09:24;97665.19;;;13.75;100.00
68193;BME280;55012;47.562;18.414;2022-07-09T01:11:50;97663.25;;;13.72;100.00
68193;BME280;55012;47.562;18.414;2022-07-09T01:14:15;97668.75;;;13.69;100.00
68193;BME280;55012;47.562;18.414;2022-07-09T01:16:41;97659.06;;;13.68;100.00
68193;BME280;55012;47.562;18.414;2022-07-09T01:19:06;97662.94;;;13.67;100.00
68193;BME280;55012;47.562;18.414;2022-07-09T01:21:34;97651.31;;;13.66;100.00
68193;BME280;55012;47.562;18.414;2022-07-09T01:24:00;97641.97;;;13.67;100.00
68193;BME280;55012;47.562;18.414;2022-07-09T01:26:26;97648.97;;;13.65;100.00
68193;BME280;55012;47.562;18.414;2022-07-09T01:28:52;97645.13;;;13.62;100.00
68193;BME280;55012;47.562;18.414;2022-07-09T01:31:17;97648.28;;;13.57;100.00
68193;BME280;55012;47.562;18.414;2022-07-09T01:33:43;97632.41;;;13.52;100.00
68193;BME280;55012;47.562;18.414;2022-07-09T01:36:09;97624.69;;;13.51;100.00
68193;BME280;55012;47.562;18.414;2022-07-09T01:38:35;97612.66;;;13.48;100.00
68193;BME280;55012;47.562;18.414;2022-07-09T01:41:01;97613.84;;;13.47;100.00
68193;BME280;55012;47.562;18.414;2022-07-09T01:43:26;97599.88;;;13.45;100.00
68193;BME280;55012;47.562;18.414;2022-07-09T01:45:52;97597.53;;;13.47;100.00
68193;BME280;55012;47.562;18.414;2022-07-09T01:48:18;97605.31;;;13.45;100.00
68193;BME280;55012;47.562;18.414;2022-07-09T01:50:43;97601.84;;;13.44;100.00
68193;BME280;55012;47.562;18.414;2022-07-09T01:53:09;97613.53;;;13.41;100.00
68193;BME280;55012;47.562;18.414;2022-07-09T01:55:34;97621.66;;;13.41;100.00
68193;BME280;55012;47.562;18.414;2022-07-09T01:58:00;97620.50;;;13.39;100.00
68193;BME280;55012;47.562;18.414;2022-07-09T02:00:25;97611.59;;;13.38;100.00
68193;BME280;55012;47.562;18.414;2022-07-09T02:02:53;97602.31;;;13.36;100.00
68193;BME280;55012;47.562;18.414;2022-07-09T02:05:19;97606.63;;;13.33;100.00
68193;BME280;55012;47.562;18.414;2022-07-09T02:07:45;97612.41;;;13.32;100.00
68193;BME280;55012;47.562;18.414;2022-07-09T02:10:12;97612.81;;;13.30;100.00
68193;BME280;55012;47.562;18.414;2022-07-09T02:12:37;97608.97;;;13.28;100.00
68193;BME280;55012;47.562;18.414;2022-07-09T02:15:03;97603.59;;;13.24;100.00
68193;BME280;55012;47.562;18.414;2022-07-09T02:17:29;97597.78;;;13.18;100.00
68193;BME280;55012;47.562;18.414;2022-07-09T02:19:54;97586.56;;;13.13;100.00
68193;BME280;55012;47.562;18.414;2022-07-09T02:22:20;97590.53;;;13.05;100.00
68193;BME280;55012;47.562;18.414;2022-07-09T02:24:45;97555.28;;;12.98;100.00
68193;BME280;55012;47.562;18.414;2022-07-09T02:27:11;97539.06;;;12.90;100.00
68193;BME280;55012;47.562;18.414;2022-07-09T02:29:36;97524.72;;;12.90;100.00
68193;BME280;55012;47.562;18.414;2022-07-09T02:32:02;97525.13;;;12.88;100.00
68193;BME280;55012;47.562;18.414;2022-07-09T02:34:28;97533.03;;;12.76;100.00
68193;BME280;55012;47.562;18.414;2022-07-09T02:36:53;97526.44;;;12.73;100.00
68193;BME280;55012;47.562;18.414;2022-07-09T02:39:19;97523.00;;;12.69;100.00
68193;BME280;55012;47.562;18.414;2022-07-09T02:41:44;97517.63;;;12.62;100.00
68193;BME280;55012;47.562;18.414;2022-07-09T02:44:10;97511.41;;;12.61;100.00
68193;BME280;55012;47.562;18.414;2022-07-09T02:46:35;97511.47;;;12.58;100.00
68193;BME280;55012;47.562;18.414;2022-07-09T02:49:01;97497.41;;;12.70;100.00
68193;BME280;55012;47.562;18.414;2022-07-09T02:51:26;97497.34;;;12.74;100.00
68193;BME280;55012;47.562;18.414;2022-07-09T02:53:52;97493.81;;;12.80;100.00
68193;BME280;55012;47.562;18.414;2022-07-09T02:56:17;97494.88;;;12.93;100.00
68193;BME280;55012;47.562;18.414;2022-07-09T02:58:43;97515.28;;;13.46;100.00
68193;BME280;55012;47.562;18.414;2022-07-09T03:01:08;97512.28;;;13.37;100.00
68193;BME280;55012;47.562;18.414;2022-07-09T03:03:34;97514.50;;;13.46;100.00
68193;BME280;55012;47.562;18.414;2022-07-09T03:06:03;97536.94;;;13.16;100.00
68193;BME280;55012;47.562;18.414;2022-07-09T03:08:28;97550.72;;;12.91;100.00
68193;BME280;55012;47.562;18.414;2022-07-09T03:10:54;97533.59;;;12.98;100.00
68193;BME280;55012;47.562;18.414;2022-07-09T03:13:19;97532.69;;;13.11;100.00
68193;BME280;55012;47.562;18.414;2022-07-09T03:15:45;97516.78;;;13.51;100.00
68193;BME280;55012;47.562;18.414;2022-07-09T03:18:10;97483.22;;;14.73;100.00
68193;BME280;55012;47.562;18.414;2022-07-09T03:20:36;97515.59;;;15.34;100.00
68193;BME280;55012;47.562;18.414;2022-07-09T03:23:05;97615.38;;;15.91;100.00
68193;BME280;55012;47.562;18.414;2022-07-09T03:25:31;97759.47;;;16.16;100.00
68193;BME280;55012;47.562;18.414;2022-07-09T03:27:57;97855.00;;;16.36;100.00
68193;BME280;55012;47.562;18.414;2022-07-09T03:30:22;97930.06;;;16.71;100.00
68193;BME280;55012;47.562;18.414;2022-07-09T03:32:49;97992.88;;;16.94;100.00
68193;BME280;55012;47.562;18.414;2022-07-09T03:35:15;98048.41;;;16.88;100.00
68193;BME280;55012;47.562;18.414;2022-07-09T03:37:40;98089.88;;;17.06;100.00
68193;BME280;55012;47.562;18.414;2022-07-09T03:40:06;98147.38;;;17.22;100.00
68193;BME280;55012;47.562;18.414;2022-07-09T03:42:32;98167.56;;;17.05;100.00
68193;BME280;55012;47.562;18.414;2022-07-09T03:44:57;98168.69;;;17.07;100.00
68193;BME280;55012;47.562;18.414;2022-07-09T03:47:23;98167.25;;;16.99;100.00
68193;BME280;55012;47.562;18.414;2022-07-09T03:49:49;98159.41;;;17.01;100.00
68193;BME280;55012;47.562;18.414;2022-07-09T03:52:14;98190.06;;;16.89;100.00
68193;BME280;55012;47.562;18.414;2022-07-09T03:54:40;98159.50;;;17.21;100.00
68193;BME280;55012;47.562;18.414;2022-07-09T03:57:06;98158.25;;;17.49;100.00
68193;BME280;55012;47.562;18.414;2022-07-09T03:59:32;98211.59;;;17.84;100.00
68193;BME280;55012;47.562;18.414;2022-07-09T04:01:57;98281.63;;;18.02;100.00
68193;BME280;55012;47.562;18.414;2022-07-09T04:04:23;98338.53;;;17.63;100.00
68193;BME280;55012;47.562;18.414;2022-07-09T04:06:48;98406.31;;;16.39;100.00
68193;BME280;55012;47.562;18.414;2022-07-09T04:09:14;98261.00;;;15.35;100.00
68193;BME280;55012;47.562;18.414;2022-07-09T04:11:39;98136.28;;;14.49;100.00
68193;BME280;55012;47.562;18.414;2022-07-09T04:14:04;98006.78;;;13.93;100.00
68193;BME280;55012;47.562;18.414;2022-07-09T04:16:30;97897.09;;;13.58;100.00
68193;BME280;55012;47.562;18.414;2022-07-09T04:18:55;97795.94;;;13.33;100.00
68193;BME280;55012;47.562;18.414;2022-07-09T04:21:21;97733.53;;;13.22;100.00
68193;BME280;55012;47.562;18.414;2022-07-09T04:23:50;97673.06;;;13.14;100.00
68193;BME280;55012;47.562;18.414;2022-07-09T04:26:17;97647.47;;;13.12;100.00
68193;BME280;55012;47.562;18.414;2022-07-09T04:28:44;97618.78;;;13.11;100.00
68193;BME280;55012;47.562;18.414;2022-07-09T04:31:09;97612.59;;;13.10;100.00
68193;BME280;55012;47.562;18.414;2022-07-09T04:33:35;97585.88;;;13.05;100.00
68193;BME280;55012;47.562;18.414;2022-07-09T04:36:00;97574.28;;;13.01;100.00
68193;BME280;55012;47.562;18.414;2022-07-09T04:38:26;97557.59;;;13.03;100.00
68193;BME280;55012;47.562;18.414;2022-07-09T04:40:51;97560.78;;;12.94;100.00
68193;BME280;55012;47.562;18.414;2022-07-09T04:43:17;97541.47;;;12.85;100.00
68193;BME280;55012;47.562;18.414;2022-07-09T04:45:43;97541.16;;;12.76;100.00
68193;BME280;55012;47.562;18.414;2022-07-09T04:48:08;97538.47;;;12.72;100.00
68193;BME280;55012;47.562;18.414;2022-07-09T04:50:34;97538.81;;;12.74;100.00
68193;BME280;55012;47.562;18.414;2022-07-09T04:53:00;97547.72;;;12.78;100.00
68193;BME280;55012;47.562;18.414;2022-07-09T04:55:25;97517.44;;;12.83;100.00
68193;BME280;55012;47.562;18.414;2022-07-09T04:57:51;97550.75;;;12.87;100.00
68193;BME280;55012;47.562;18.414;2022-07-09T05:00:16;97543.78;;;12.86;100.00
68193;BME280;55012;47.562;18.414;2022-07-09T05:02:43;97548.00;;;12.91;100.00
68193;BME280;55012;47.562;18.414;2022-07-09T05:05:09;97533.25;;;12.92;100.00
68193;BME280;55012;47.562;18.414;2022-07-09T05:07:35;97553.41;;;12.94;100.00
68193;BME280;55012;47.562;18.414;2022-07-09T05:10:01;97558.41;;;12.96;100.00
68193;BME280;55012;47.562;18.414;2022-07-09T05:12:28;97560.34;;;12.99;100.00
68193;BME280;55012;47.562;18.414;2022-07-09T05:14:54;97556.41;;;13.04;100.00
68193;BME280;55012;47.562;18.414;2022-07-09T05:17:20;97552.88;;;13.07;100.00
68193;BME280;55012;47.562;18.414;2022-07-09T05:19:46;97539.66;;;13.12;100.00
68193;BME280;55012;47.562;18.414;2022-07-09T05:22:11;97545.78;;;13.24;100.00
68193;BME280;55012;47.562;18.414;2022-07-09T05:24:37;97556.97;;;13.33;100.00
68193;BME280;55012;47.562;18.414;2022-07-09T05:27:03;97573.16;;;13.40;100.00
68193;BME280;55012;47.562;18.414;2022-07-09T05:29:29;97570.78;;;13.45;100.00
68193;BME280;55012;47.562;18.414;2022-07-09T05:31:54;97585.41;;;13.55;100.00
68193;BME280;55012;47.562;18.414;2022-07-09T05:34:23;97583.44;;;13.59;100.00
68193;BME280;55012;47.562;18.414;2022-07-09T05:36:48;97607.06;;;13.66;100.00
68193;BME280;55012;47.562;18.414;2022-07-09T05:39:14;97625.22;;;13.72;100.00
68193;BME280;55012;47.562;18.414;2022-07-09T05:41:40;97660.88;;;13.78;100.00
68193;BME280;55012;47.562;18.414;2022-07-09T05:44:06;97643.75;;;13.81;100.00
68193;BME280;55012;47.562;18.414;2022-07-09T05:46:31;97644.03;;;13.94;100.00
68193;BME280;55012;47.562;18.414;2022-07-09T05:48:57;97666.78;;;14.07;100.00
68193;BME280;55012;47.562;18.414;2022-07-09T05:51:22;97688.50;;;14.11;100.00
68193;BME280;55012;47.562;18.414;2022-07-09T05:53:48;97710.19;;;14.14;100.00
68193;BME280;55012;47.562;18.414;2022-07-09T05:56:13;97729.16;;;14.21;100.00
68193;BME280;55012;47.562;18.414;2022-07-09T05:58:39;97745.81;;;14.27;100.00
68193;BME280;55012;47.562;18.414;2022-07-09T06:01:06;97731.38;;;14.33;100.00
68193;BME280;55012;47.562;18.414;2022-07-09T06:03:31;97759.59;;;14.50;100.00
68193;BME280;55012;47.562;18.414;2022-07-09T06:05:57;97785.53;;;14.58;100.00
68193;BME280;55012;47.562;18.414;2022-07-09T06:08:23;97827.81;;;14.67;100.00
68193;BME280;55012;47.562;18.414;2022-07-09T06:10:50;97821.16;;;14.71;100.00
68193;BME280;55012;47.562;18.414;2022-07-09T06:13:16;97849.13;;;14.75;100.00
68193;BME280;55012;47.562;18.414;2022-07-09T06:15:41;97863.41;;;14.83;100.00
68193;BME280;55012;47.562;18.414;2022-07-09T06:18:07;97857.06;;;14.93;100.00
68193;BME280;55012;47.562;18.414;2022-07-09T06:20:32;97882.59;;;15.06;100.00
68193;BME280;55012;47.562;18.414;2022-07-09T06:22:58;97894.13;;;15.17;100.00
68193;BME280;55012;47.562;18.414;2022-07-09T06:25:23;97942.63;;;15.30;100.00
68193;BME280;55012;47.562;18.414;2022-07-09T06:27:49;97948.47;;;15.32;100.00
68193;BME280;55012;47.562;18.414;2022-07-09T06:30:14;97996.59;;;15.42;100.00
68193;BME280;55012;47.562;18.414;2022-07-09T06:32:40;97995.75;;;15.49;100.00
68193;BME280;55012;47.562;18.414;2022-07-09T06:35:06;98017.50;;;15.52;100.00
68193;BME280;55012;47.562;18.414;2022-07-09T06:37:32;98016.59;;;15.66;100.00
68193;BME280;55012;47.562;18.414;2022-07-09T06:39:57;98056.19;;;15.78;100.00
68193;BME280;55012;47.562;18.414;2022-07-09T06:42:24;98061.13;;;15.86;100.00
68193;BME280;55012;47.562;18.414;2022-07-09T06:44:50;98081.69;;;15.94;100.00
68193;BME280;55012;47.562;18.414;2022-07-09T06:47:15;98131.88;;;16.00;100.00
68193;BME280;55012;47.562;18.414;2022-07-09T06:49:41;98130.66;;;16.05;100.00
68193;BME280;55012;47.562;18.414;2022-07-09T06:52:07;98145.38;;;16.15;100.00
68193;BME280;55012;47.562;18.414;2022-07-09T06:54:33;98172.97;;;16.20;100.00
68193;BME280;55012;47.562;18.414;2022-07-09T06:56:59;98179.09;;;16.28;100.00
68193;BME280;55012;47.562;18.414;2022-07-09T06:59:24;98172.75;;;16.38;100.00
68193;BME280;55012;47.562;18.414;2022-07-09T07:01:50;98194.81;;;16.51;100.00
68193;BME280;55012;47.562;18.414;2022-07-09T07:04:16;98221.19;;;16.65;100.00
68193;BME280;55012;47.562;18.414;2022-07-09T07:06:42;98254.69;;;16.69;100.00
68193;BME280;55012;47.562;18.414;2022-07-09T07:09:08;98262.44;;;16.74;100.00
68193;BME280;55012;47.562;18.414;2022-07-09T07:11:34;98234.28;;;16.80;100.00
68193;BME280;55012;47.562;18.414;2022-07-09T07:14:00;98276.28;;;16.90;100.00
68193;BME280;55012;47.562;18.414;2022-07-09T07:16:25;98293.34;;;16.98;100.00
68193;BME280;55012;47.562;18.414;2022-07-09T07:18:54;98282.72;;;17.03;100.00
68193;BME280;55012;47.562;18.414;2022-07-09T07:21:20;98302.94;;;17.09;100.00
68193;BME280;55012;47.562;18.414;2022-07-09T07:23:45;98342.31;;;17.16;100.00
68193;BME280;55012;47.562;18.414;2022-07-09T07:26:10;98351.28;;;17.16;100.00
68193;BME280;55012;47.562;18.414;2022-07-09T07:28:36;98334.06;;;17.19;100.00
68193;BME280;55012;47.562;18.414;2022-07-09T07:31:01;98339.91;;;17.21;100.00
68193;BME280;55012;47.562;18.414;2022-07-09T07:33:27;98337.44;;;17.30;100.00
68193;BME280;55012;47.562;18.414;2022-07-09T07:35:53;98355.72;;;17.33;100.00
68193;BME280;55012;47.562;18.414;2022-07-09T07:38:19;98395.13;;;17.36;100.00
68193;BME280;55012;47.562;18.414;2022-07-09T07:40:44;98437.69;;;17.37;100.00
68193;BME280;55012;47.562;18.414;2022-07-09T07:43:11;98419.72;;;17.39;100.00
68193;BME280;55012;47.562;18.414;2022-07-09T07:45:37;98431.69;;;17.49;100.00
68193;BME280;55012;47.562;18.414;2022-07-09T07:48:03;98455.47;;;17.52;100.00
68193;BME280;55012;47.562;18.414;2022-07-09T07:50:28;98465.09;;;17.64;100.00
68193;BME280;55012;47.562;18.414;2022-07-09T07:52:54;98479.78;;;17.77;100.00
68193;BME280;55012;47.562;18.414;2022-07-09T07:55:20;98514.16;;;17.82;100.00
68193;BME280;55012;47.562;18.414;2022-07-09T07:57:45;98559.41;;;17.86;100.00
68193;BME280;55012;47.562;18.414;2022-07-09T08:00:11;98542.13;;;17.93;100.00
68193;BME280;55012;47.562;18.414;2022-07-09T08:02:37;98578.81;;;17.99;100.00
68193;BME280;55012;47.562;18.414;2022-07-09T08:05:02;98632.63;;;18.09;100.00
68193;BME280;55012;47.562;18.414;2022-07-09T08:07:28;98672.41;;;18.21;100.00
68193;BME280;55012;47.562;18.414;2022-07-09T08:09:54;98669.19;;;18.26;100.00
68193;BME280;55012;47.562;18.414;2022-07-09T08:12:19;98665.16;;;18.38;100.00
68193;BME280;55012;47.562;18.414;2022-07-09T08:14:45;98676.13;;;18.34;100.00
68193;BME280;55012;47.562;18.414;2022-07-09T08:17:11;98722.28;;;18.36;100.00
68193;BME280;55012;47.562;18.414;2022-07-09T08:19:36;98683.56;;;18.34;100.00
68193;BME280;55012;47.562;18.414;2022-07-09T08:22:02;98717.19;;;18.38;100.00
68193;BME280;55012;47.562;18.414;2022-07-09T08:24:28;98757.06;;;18.39;100.00
68193;BME280;55012;47.562;18.414;2022-07-09T08:26:53;98699.97;;;18.37;100.00
68193;BME280;55012;47.562;18.414;2022-07-09T08:29:20;98688.03;;;18.51;100.00
68193;BME280;55012;47.562;18.414;2022-07-09T08:31:45;98674.13;;;18.69;100.00
68193;BME280;55012;47.562;18.414;2022-07-09T08:34:13;98697.59;;;18.70;100.00
68193;BME280;55012;47.562;18.414;2022-07-09T08:36:38;98674.41;;;18.78;100.00
68193;BME280;55012;47.562;18.414;2022-07-09T08:39:04;98677.03;;;18.85;100.00
68193;BME280;55012;47.562;18.414;2022-07-09T08:41:30;98753.31;;;18.90;100.00
68193;BME280;55012;47.562;18.414;2022-07-09T08:43:56;98746.38;;;18.82;100.00
68193;BME280;55012;47.562;18.414;2022-07-09T08:46:22;98751.78;;;18.89;100.00
68193;BME280;55012;47.562;18.414;2022-07-09T08:48:48;98790.41;;;18.98;100.00
68193;BME280;55012;47.562;18.414;2022-07-09T08:51:14;98841.16;;;19.10;100.00
68193;BME280;55012;47.562;18.414;2022-07-09T08:53:41;98840.44;;;19.06;100.00
68193;BME280;55012;47.562;18.414;2022-07-09T08:56:08;98814.16;;;19.08;100.00
68193;BME280;55012;47.562;18.414;2022-07-09T08:58:34;98833.22;;;19.19;100.00
68193;BME280;55012;47.562;18.414;2022-07-09T09:01:00;98768.13;;;19.23;100.00
68193;BME280;55012;47.562;18.414;2022-07-09T09:03:26;98805.06;;;19.15;100.00
68193;BME280;55012;47.562;18.414;2022-07-09T09:06:04;98805.00;;;19.19;100.00
68193;BME280;55012;47.562;18.414;2022-07-09T09:08:56;98757.22;;;19.20;100.00
68193;BME280;55012;47.562;18.414;2022-07-09T09:11:24;98779.88;;;19.24;100.00
68193;BME280;55012;47.562;18.414;2022-07-09T09:13:51;98779.94;;;19.20;100.00
68193;BME280;55012;47.562;18.414;2022-07-09T09:16:18;98822.91;;;19.27;100.00
68193;BME280;55012;47.562;18.414;2022-07-09T09:18:46;98801.72;;;19.31;100.00
68193;BME280;55012;47.562;18.414;2022-07-09T09:21:12;98787.34;;;19.23;100.00
68193;BME280;55012;47.562;18.414;2022-07-09T09:26:17;98819.38;;;19.30;100.00
68193;BME280;55012;47.562;18.414;2022-07-09T09:31:25;98869.31;;;19.45;100.00
68193;BME280;55012;47.562;18.414;2022-07-09T09:33:56;98862.84;;;19.62;100.00
68193;BME280;55012;47.562;18.414;2022-07-09T09:36:45;98860.94;;;19.55;100.00
68193;BME280;55012;47.562;18.414;2022-07-09T09:44:16;98884.88;;;19.82;100.00
68193;BME280;55012;47.562;18.414;2022-07-09T09:46:43;98867.56;;;19.85;100.00
68193;BME280;55012;47.562;18.414;2022-07-09T09:49:11;98839.34;;;19.84;100.00
68193;BME280;55012;47.562;18.414;2022-07-09T09:54:20;98893.31;;;19.95;100.00
68193;BME280;55012;47.562;18.414;2022-07-09T09:56:47;98873.56;;;20.03;100.00
68193;BME280;55012;47.562;18.414;2022-07-09T09:59:14;98921.16;;;20.20;100.00
68193;BME280;55012;47.562;18.414;2022-07-09T10:01:41;98924.69;;;20.20;100.00
68193;BME280;55012;47.562;18.414;2022-07-09T10:04:08;98946.16;;;20.26;100.00
68193;BME280;55012;47.562;18.414;2022-07-09T10:06:34;98859.78;;;20.30;100.00
68193;BME280;55012;47.562;18.414;2022-07-09T10:09:02;98914.66;;;20.34;100.00
68193;BME280;55012;47.562;18.414;2022-07-09T10:11:48;98869.22;;;20.29;100.00
68193;BME280;55012;47.562;18.414;2022-07-09T10:14:28;98903.53;;;20.41;100.00
68193;BME280;55012;47.562;18.414;2022-07-09T10:16:54;98942.78;;;20.41;100.00
68193;BME280;55012;47.562;18.414;2022-07-09T10:19:31;98949.72;;;20.50;100.00
68193;BME280;55012;47.562;18.414;2022-07-09T10:22:00;98894.44;;;20.47;100.00
68193;BME280;55012;47.562;18.414;2022-07-09T10:24:32;98870.34;;;20.55;100.00
68193;BME280;55012;47.562;18.414;2022-07-09T10:27:10;98935.66;;;20.47;100.00
68193;BME280;55012;47.562;18.414;2022-07-09T10:29:52;98904.19;;;20.52;100.00
68193;BME280;55012;47.562;18.414;2022-07-09T10:32:31;98963.53;;;20.46;100.00
68193;BME280;55012;47.562;18.414;2022-07-09T10:35:05;98877.94;;;20.47;100.00
68193;BME280;55012;47.562;18.414;2022-07-09T10:40:09;98937.72;;;20.63;100.00
68193;BME280;55012;47.562;18.414;2022-07-09T10:42:39;98960.28;;;20.74;100.00
68193;BME280;55012;47.562;18.414;2022-07-09T10:45:21;98992.91;;;20.96;100.00
68193;BME280;55012;47.562;18.414;2022-07-09T10:48:01;98958.06;;;20.89;100.00
68193;BME280;55012;47.562;18.414;2022-07-09T10:50:29;98948.84;;;20.99;100.00
68193;BME280;55012;47.562;18.414;2022-07-09T10:52:56;99004.63;;;21.00;100.00
68193;BME280;55012;47.562;18.414;2022-07-09T10:55:24;99014.50;;;20.97;100.00
68193;BME280;55012;47.562;18.414;2022-07-09T10:57:50;99009.78;;;20.98;100.00
68193;BME280;55012;47.562;18.414;2022-07-09T11:00:18;99024.53;;;21.08;100.00
68193;BME280;55012;47.562;18.414;2022-07-09T11:02:58;99061.91;;;21.05;100.00
68193;BME280;55012;47.562;18.414;2022-07-09T11:05:25;99074.50;;;21.26;100.00
68193;BME280;55012;47.562;18.414;2022-07-09T11:08:18;99073.34;;;21.47;100.00
68193;BME280;55012;47.562;18.414;2022-07-09T11:10:43;99068.72;;;21.44;100.00
68193;BME280;55012;47.562;18.414;2022-07-09T11:13:10;99124.88;;;21.46;100.00
68193;BME280;55012;47.562;18.414;2022-07-09T11:15:37;99118.16;;;21.24;100.00
68193;BME280;55012;47.562;18.414;2022-07-09T11:18:05;99074.91;;;21.28;100.00
68193;BME280;55012;47.562;18.414;2022-07-09T11:20:37;99075.81;;;21.41;100.00
68193;BME280;55012;47.562;18.414;2022-07-09T11:23:02;99112.88;;;21.56;100.00
68193;BME280;55012;47.562;18.414;2022-07-09T11:25:28;99142.09;;;21.50;100.00
68193;BME280;55012;47.562;18.414;2022-07-09T11:27:58;99134.34;;;21.45;100.00
68193;BME280;55012;47.562;18.414;2022-07-09T11:30:25;99102.28;;;21.35;100.00
68193;BME280;55012;47.562;18.414;2022-07-09T11:32:51;99093.22;;;21.35;100.00
68193;BME280;55012;47.562;18.414;2022-07-09T11:35:27;99151.53;;;21.49;100.00
68193;BME280;55012;47.562;18.414;2022-07-09T11:37:53;99168.41;;;21.51;100.00
68193;BME280;55012;47.562;18.414;2022-07-09T11:40:19;99113.81;;;21.70;100.00
68193;BME280;55012;47.562;18.414;2022-07-09T11:42:45;99143.13;;;21.80;100.00
68193;BME280;55012;47.562;18.414;2022-07-09T11:45:11;99164.69;;;22.05;100.00
68193;BME280;55012;47.562;18.414;2022-07-09T11:47:39;99166.72;;;22.01;100.00
68193;BME280;55012;47.562;18.414;2022-07-09T11:50:22;99148.72;;;22.16;100.00
68193;BME280;55012;47.562;18.414;2022-07-09T11:52:51;99179.47;;;22.14;100.00
68193;BME280;55012;47.562;18.414;2022-07-09T11:55:18;99162.53;;;21.93;100.00
68193;BME280;55012;47.562;18.414;2022-07-09T11:57:53;99135.50;;;21.87;100.00
68193;BME280;55012;47.562;18.414;2022-07-09T12:00:20;99188.31;;;21.82;100.00
68193;BME280;55012;47.562;18.414;2022-07-09T12:02:46;99212.06;;;21.76;100.00
68193;BME280;55012;47.562;18.414;2022-07-09T12:05:11;99221.97;;;21.94;100.00
68193;BME280;55012;47.562;18.414;2022-07-09T12:07:37;99286.31;;;22.03;100.00
68193;BME280;55012;47.562;18.414;2022-07-09T12:10:08;99234.22;;;22.12;100.00
68193;BME280;55012;47.562;18.414;2022-07-09T12:12:35;99203.91;;;22.12;100.00
68193;BME280;55012;47.562;18.414;2022-07-09T12:15:02;99254.09;;;22.00;100.00
68193;BME280;55012;47.562;18.414;2022-07-09T12:17:29;99227.22;;;22.08;100.00
68193;BME280;55012;47.562;18.414;2022-07-09T12:19:56;99226.88;;;22.46;100.00
68193;BME280;55012;47.562;18.414;2022-07-09T12:22:22;99326.84;;;22.89;100.00
68193;BME280;55012;47.562;18.414;2022-07-09T12:24:51;99308.03;;;22.64;100.00
68193;BME280;55012;47.562;18.414;2022-07-09T12:27:18;99285.63;;;22.42;100.00
68193;BME280;55012;47.562;18.414;2022-07-09T12:29:43;99330.00;;;22.48;100.00
68193;BME280;55012;47.562;18.414;2022-07-09T12:32:09;99316.13;;;22.32;100.00
68193;BME280;55012;47.562;18.414;2022-07-09T12:34:35;99342.53;;;22.53;100.00
68193;BME280;55012;47.562;18.414;2022-07-09T12:37:01;99320.16;;;22.67;100.00
68193;BME280;55012;47.562;18.414;2022-07-09T12:39:27;99357.44;;;22.75;100.00
68193;BME280;55012;47.562;18.414;2022-07-09T12:41:53;99386.44;;;22.63;100.00
68193;BME280;55012;47.562;18.414;2022-07-09T12:44:19;99406.72;;;22.53;100.00
68193;BME280;55012;47.562;18.414;2022-07-09T12:46:45;99368.78;;;22.37;100.00
68193;BME280;55012;47.562;18.414;2022-07-09T12:49:10;99370.44;;;22.55;100.00
68193;BME280;55012;47.562;18.414;2022-07-09T12:51:36;99380.44;;;22.68;100.00
68193;BME280;55012;47.562;18.414;2022-07-09T12:54:01;99358.09;;;22.63;100.00